Time;durP1;ratioP1;P1;durP2;ratioP2;P2;SDS_P1;SDS_P2;PMS_P1;PMS_P2;Temp;Humidity;BMP_temperature;BMP_pressure;BME280_temperature;BME280_humidity;BME280_pressure;Samples;Min_cycle;Max_cycle;Signal;HPM_P1;HPM_P2
2022/01/18 00:02:04;;;;;;;27.30;8.77;;;;;;;;;;4932552;28;20461;-72
2022/01/18 00:04:29;;;;;;;23.35;8.07;;;;;;;;;;4932710;28;20342;-72
2022/01/18 00:06:55;;;;;;;20.27;7.28;;;;;;;;;;4932753;28;20433;-71
2022/01/18 00:09:25;;;;;;;22.70;7.90;;;;;;;;;;4915297;28;20424;-71
2022/01/18 00:11:59;;;;;;;24.88;7.63;;;;;;;;;;4933744;28;20445;-71
2022/01/18 00:14:28;;;;;;;18.60;6.72;;;;;;;;;;4916027;28;20453;-72
2022/01/18 00:17:16;;;;;;;15.73;6.28;;;;;;;;;;4947185;28;20417;-72
2022/01/18 00:19:45;;;;;;;19.00;7.40;;;;;;;;;;4932538;28;20057;-71
2022/01/18 00:22:14;;;;;;;16.90;6.05;;;;;;;;;;4932496;28;20426;-72
2022/01/18 00:24:40;;;;;;;;;;;;;;;;;;4947069;28;20421;-72
2022/01/18 00:27:10;;;;;;;21.20;6.68;;;;;;;;;;4946918;28;20351;-72
2022/01/18 00:29:45;;;;;;;14.60;5.68;;;;;;;;;;4933856;28;20530;-71
2022/01/18 00:32:29;;;;;;;16.48;5.78;;;;;;;;;;4932310;28;20311;-72
2022/01/18 00:34:56;;;;;;;17.33;5.63;;;;;;;;;;4931991;28;20341;-71
2022/01/18 00:37:39;;;;;;;14.23;4.82;;;;;;;;;;4932290;28;20433;-72
2022/01/18 00:40:06;;;;;;;15.93;5.70;;;;;;;;;;4944981;28;20417;-71
2022/01/18 00:42:32;;;;;;;21.38;5.80;;;;;;;;;;4931502;28;20358;-71
2022/01/18 00:44:57;;;;;;;17.52;6.10;;;;;;;;;;4946742;28;20053;-71
2022/01/18 00:47:23;;;;;;;12.68;5.53;;;;;;;;;;4931570;28;20390;-71
2022/01/18 00:49:56;;;;;;;14.80;5.43;;;;;;;;;;4931492;28;20497;-72
2022/01/18 00:52:22;;;;;;;13.10;4.88;;;;;;;;;;4945781;28;20030;-71
2022/01/18 00:54:47;;;;;;;17.48;6.15;;;;;;;;;;4931530;28;20452;-72
2022/01/18 00:57:13;;;;;;;13.18;5.13;;;;;;;;;;4931698;28;20430;-72
2022/01/18 00:59:41;;;;;;;12.00;5.38;;;;;;;;;;4931425;28;20465;-72
2022/01/18 01:02:08;;;;;;;15.37;4.97;;;;;;;;;;4955938;28;20480;-71
2022/01/18 01:04:38;;;;;;;14.18;5.55;;;;;;;;;;4931442;28;20705;-71
2022/01/18 01:07:04;;;;;;;11.85;4.25;;;;;;;;;;4931166;28;20026;-71
2022/01/18 01:09:29;;;;;;;14.73;4.57;;;;;;;;;;4913998;28;20453;-71
2022/01/18 01:11:55;;;;;;;11.90;4.20;;;;;;;;;;4913850;28;20728;-71
2022/01/18 01:14:24;;;;;;;14.85;5.18;;;;;;;;;;4946779;28;20438;-72
2022/01/18 01:17:07;;;;;;;11.73;4.18;;;;;;;;;;4930845;28;20342;-72
2022/01/18 01:43:28;;;;;;;10.98;4.13;;;;;;;;;;4931343;28;20448;-72
2022/01/18 01:45:54;;;;;;;12.98;3.42;;;;;;;;;;4931605;28;20458;-71
2022/01/18 01:48:22;;;;;;;14.85;4.05;;;;;;;;;;4929128;28;20450;-72
2022/01/18 01:50:54;;;;;;;12.43;3.90;;;;;;;;;;4945459;28;20460;-72
2022/01/18 01:53:22;;;;;;;13.38;4.15;;;;;;;;;;4944403;28;20081;-71
2022/01/18 01:55:48;;;;;;;11.43;4.60;;;;;;;;;;4913246;28;20049;-71
2022/01/18 01:58:15;;;;;;;8.73;3.75;;;;;;;;;;4913185;28;20497;-72
2022/01/18 02:00:46;;;;;;;14.43;4.55;;;;;;;;;;4945349;28;20513;-72
2022/01/18 02:03:13;;;;;;;12.30;3.97;;;;;;;;;;4913647;28;20421;-72
2022/01/18 02:05:38;;;;;;;7.30;3.72;;;;;;;;;;4929115;28;20504;-72
2022/01/18 02:08:07;;;;;;;9.18;3.58;;;;;;;;;;4929979;28;20606;-73
2022/01/18 02:10:36;;;;;;;6.60;3.30;;;;;;;;;;4912883;28;20434;-72
2022/01/18 02:13:05;;;;;;;9.65;4.47;;;;;;;;;;4930187;28;20381;-72
2022/01/18 02:15:31;;;;;;;12.32;4.30;;;;;;;;;;4930592;28;20430;-72
2022/01/18 02:23:27;;;;;;;10.95;3.67;;;;;;;;;;4930212;28;20552;-72
2022/01/18 02:25:53;;;;;;;9.02;3.33;;;;;;;;;;4912663;28;20562;-73
2022/01/18 02:28:20;;;;;;;9.32;3.05;;;;;;;;;;4930059;28;20500;-72
2022/01/18 02:30:45;;;;;;;9.02;3.10;;;;;;;;;;4930773;28;20325;-72
2022/01/18 02:33:11;;;;;;;8.93;3.50;;;;;;;;;;4930060;28;20035;-72
2022/01/18 02:35:37;;;;;;;8.70;3.38;;;;;;;;;;4913026;28;20457;-72
2022/01/18 02:38:03;;;;;;;7.47;2.92;;;;;;;;;;4912603;28;20117;-72
2022/01/18 02:40:30;;;;;;;7.32;3.15;;;;;;;;;;4912894;28;20429;-72
2022/01/18 02:43:46;;;;;;;8.38;3.05;;;;;;;;;;4913067;28;20361;-72
2022/01/18 02:45:47;;;;;;;7.70;2.65;;;;;;;;;;4931733;28;20109;-72
2022/01/18 02:48:12;;;;;;;8.13;2.97;;;;;;;;;;4950068;28;20468;-71
2022/01/18 02:50:38;;;;;;;9.02;2.60;;;;;;;;;;4949671;28;20394;-72
2022/01/18 02:53:03;;;;;;;7.28;2.78;;;;;;;;;;4963988;28;20026;-72
2022/01/18 02:55:29;;;;;;;8.80;3.03;;;;;;;;;;4964335;28;20479;-72
2022/01/18 02:58:02;;;;;;;9.35;2.88;;;;;;;;;;4932664;28;20025;-72
2022/01/18 03:00:32;;;;;;;5.38;2.17;;;;;;;;;;4963306;28;20376;-72
2022/01/18 03:03:12;;;;;;;12.43;2.70;;;;;;;;;;4932145;28;20440;-72
2022/01/18 03:05:38;;;;;;;5.90;2.25;;;;;;;;;;4950468;28;20392;-72
2022/01/18 03:08:04;;;;;;;6.78;2.20;;;;;;;;;;4949638;28;20115;-72
2022/01/18 03:10:29;;;;;;;8.20;2.33;;;;;;;;;;4949917;28;20092;-72
2022/01/18 03:12:54;;;;;;;6.82;2.65;;;;;;;;;;4950627;28;20052;-72
2022/01/18 03:15:20;;;;;;;8.93;2.80;;;;;;;;;;4950513;28;20349;-71
2022/01/18 03:17:45;;;;;;;7.88;3.40;;;;;;;;;;4949106;28;20337;-72
2022/01/18 03:20:13;;;;;;;8.25;2.55;;;;;;;;;;4964383;28;20045;-72
2022/01/18 03:22:39;;;;;;;6.20;2.80;;;;;;;;;;4950809;28;20497;-71
2022/01/18 03:26:14;;;;;;;9.35;3.00;;;;;;;;;;4952806;28;20476;-71
2022/01/18 03:28:05;;;;;;;7.18;2.65;;;;;;;;;;4939119;28;20519;-72
2022/01/18 03:30:32;;;;;;;3.95;2.20;;;;;;;;;;4967414;28;20421;-72
2022/01/18 03:32:58;;;;;;;6.97;2.80;;;;;;;;;;4935196;28;20052;-72
2022/01/18 03:35:23;;;;;;;7.90;2.55;;;;;;;;;;4935080;28;20033;-73
2022/01/18 03:37:50;;;;;;;11.77;2.63;;;;;;;;;;4968082;28;20409;-72
2022/01/18 03:40:15;;;;;;;4.45;2.10;;;;;;;;;;4967427;28;20432;-71
2022/01/18 03:42:43;;;;;;;5.85;2.30;;;;;;;;;;4951599;28;20420;-71
2022/01/18 03:45:15;;;;;;;8.52;3.20;;;;;;;;;;4934553;28;20420;-72
2022/01/18 03:47:41;;;;;;;7.43;2.58;;;;;;;;;;4934072;28;20076;-72
2022/01/18 03:50:08;;;;;;;6.82;2.67;;;;;;;;;;4966872;28;20329;-73
2022/01/18 03:52:33;;;;;;;5.13;2.53;;;;;;;;;;4952458;28;20400;-72
2022/01/18 03:54:59;;;;;;;10.93;2.95;;;;;;;;;;4967881;28;20381;-72
2022/01/18 03:57:24;;;;;;;7.90;2.67;;;;;;;;;;4934095;28;20112;-72
2022/01/18 03:59:50;;;;;;;9.30;2.95;;;;;;;;;;4952414;28;20108;-72
2022/01/18 04:02:15;;;;;;;7.55;2.67;;;;;;;;;;4968042;28;20445;-72
2022/01/18 04:04:41;;;;;;;6.63;2.15;;;;;;;;;;4934784;28;20164;-73
2022/01/18 04:07:07;;;;;;;6.45;2.50;;;;;;;;;;4953407;28;20104;-72
2022/01/18 04:09:32;;;;;;;8.48;3.25;;;;;;;;;;4935037;28;20437;-72
2022/01/18 04:11:58;;;;;;;7.60;2.05;;;;;;;;;;4967068;28;20505;-72
2022/01/18 04:14:26;;;;;;;7.10;2.40;;;;;;;;;;4934528;28;20456;-72
2022/01/18 04:27:36;;;;;;;4.82;2.17;;;;;;;;;;4964585;28;20377;-72
2022/01/18 04:30:03;;;;;;;8.05;2.42;;;;;;;;;;4934799;28;20441;-72
2022/01/18 04:32:28;;;;;;;6.47;2.25;;;;;;;;;;4952470;28;20643;-72
2022/01/18 04:34:54;;;;;;;7.50;2.63;;;;;;;;;;4951242;28;20321;-72
2022/01/18 04:37:19;;;;;;;5.82;2.08;;;;;;;;;;4951637;28;20516;-72
2022/01/18 04:39:46;;;;;;;3.92;2.30;;;;;;;;;;4951421;28;20452;-72
2022/01/18 04:42:19;;;;;;;6.70;2.10;;;;;;;;;;4934411;28;20369;-72
2022/01/18 04:50:26;;;;;;;9.10;1.92;;;;;;;;;;4879327;28;20525;-72
2022/01/18 04:52:52;;;;;;;4.55;2.10;;;;;;;;;;4933418;28;20422;-72
2022/01/18 04:55:18;;;;;;;5.32;1.98;;;;;;;;;;4932109;28;20327;-72
2022/01/18 04:57:53;;;;;;;5.05;1.75;;;;;;;;;;4933095;28;20405;-72
2022/01/18 05:00:19;;;;;;;6.95;2.38;;;;;;;;;;4945099;28;20026;-72
2022/01/18 05:02:47;;;;;;;5.13;2.13;;;;;;;;;;4931484;28;20444;-72
2022/01/18 05:05:21;;;;;;;6.00;2.45;;;;;;;;;;4914351;28;20049;-72
2022/01/18 05:07:47;;;;;;;5.57;1.88;;;;;;;;;;4914958;28;20093;-72
2022/01/18 05:10:14;;;;;;;5.35;2.22;;;;;;;;;;4931410;28;20019;-72
2022/01/18 05:12:46;;;;;;;5.93;2.15;;;;;;;;;;4932213;28;20434;-73
2022/01/18 05:15:37;;;;;;;7.82;1.92;;;;;;;;;;4931120;28;20053;-72
2022/01/18 05:21:09;;;;;;;7.97;2.13;;;;;;;;;;4916887;28;20407;-72
2022/01/18 05:23:34;;;;;;;6.93;2.00;;;;;;;;;;4917857;28;20034;-72
2022/01/18 05:26:00;;;;;;;5.18;2.00;;;;;;;;;;4914190;28;20468;-72
2022/01/18 05:28:25;;;;;;;5.55;2.38;;;;;;;;;;4913388;28;20558;-72
2022/01/18 05:30:50;;;;;;;6.45;2.05;;;;;;;;;;4932504;28;20434;-72
2022/01/18 05:33:18;;;;;;;3.80;1.85;;;;;;;;;;4931830;28;20389;-72
2022/01/18 05:35:43;;;;;;;11.90;3.72;;;;;;;;;;4931776;28;20097;-72
2022/01/18 05:38:09;;;;;;;5.38;1.98;;;;;;;;;;4931815;28;20030;-72
2022/01/18 05:40:34;;;;;;;5.47;1.90;;;;;;;;;;4931011;28;20461;-72
2022/01/18 05:42:59;;;;;;;6.40;1.92;;;;;;;;;;4931648;28;20457;-73
2022/01/18 05:45:25;;;;;;;8.50;2.72;;;;;;;;;;4930376;28;20366;-72
2022/01/18 05:47:50;;;;;;;5.93;1.90;;;;;;;;;;4947430;28;20512;-72
2022/01/18 05:50:15;;;;;;;6.32;2.08;;;;;;;;;;4950446;28;20464;-72
2022/01/18 05:52:41;;;;;;;8.00;2.20;;;;;;;;;;4932634;28;20369;-72
2022/01/18 05:55:08;;;;;;;4.07;1.98;;;;;;;;;;4964794;28;20453;-72
2022/01/18 05:57:33;;;;;;;3.50;1.85;;;;;;;;;;4933092;28;20341;-72
2022/01/18 06:00:05;;;;;;;5.03;2.00;;;;;;;;;;4949876;28;20061;-73
2022/01/18 06:02:42;;;;;;;6.57;2.10;;;;;;;;;;4947819;28;20321;-73
2022/01/18 06:07:53;;;;;;;4.32;1.67;;;;;;;;;;4949781;28;20111;-72
2022/01/18 06:10:19;;;;;;;6.40;2.58;;;;;;;;;;4933142;28;20417;-72
2022/01/18 06:12:44;;;;;;;8.57;2.75;;;;;;;;;;4965128;28;20398;-72
2022/01/18 06:15:10;;;;;;;4.15;1.60;;;;;;;;;;4950153;28;20029;-72
2022/01/18 06:17:36;;;;;;;6.30;1.90;;;;;;;;;;4950376;28;20356;-73
2022/01/18 06:20:02;;;;;;;4.13;1.70;;;;;;;;;;4950264;28;20350;-72
2022/01/18 06:22:27;;;;;;;5.05;1.88;;;;;;;;;;4964704;28;20484;-72
2022/01/18 06:24:53;;;;;;;6.10;2.25;;;;;;;;;;4950179;28;20457;-72
2022/01/18 06:27:18;;;;;;;5.75;1.73;;;;;;;;;;4964153;28;20486;-72
2022/01/18 06:29:43;;;;;;;11.13;2.30;;;;;;;;;;4932236;28;20484;-72
2022/01/18 06:32:09;;;;;;;3.78;1.80;;;;;;;;;;4964440;28;20372;-73
2022/01/18 06:34:34;;;;;;;7.57;1.70;;;;;;;;;;4963937;28;20453;-72
2022/01/18 06:37:00;;;;;;;4.85;1.48;;;;;;;;;;4948025;28;20452;-72
2022/01/18 06:39:25;;;;;;;4.57;1.88;;;;;;;;;;4964372;28;20230;-72
2022/01/18 06:41:50;;;;;;;8.77;2.83;;;;;;;;;;4950280;28;20359;-72
2022/01/18 06:44:16;;;;;;;6.07;2.22;;;;;;;;;;4950463;28;20308;-72
2022/01/18 06:46:41;;;;;;;4.75;1.92;;;;;;;;;;4963983;28;20421;-72
2022/01/18 06:49:07;;;;;;;5.72;1.45;;;;;;;;;;4964402;28;20396;-72
2022/01/18 06:51:33;;;;;;;4.50;2.22;;;;;;;;;;4932861;28;20492;-72
2022/01/18 06:53:58;;;;;;;4.82;1.65;;;;;;;;;;4950053;28;20453;-72
2022/01/18 06:56:26;;;;;;;7.38;3.00;;;;;;;;;;4950783;28;20445;-72
2022/01/18 06:58:53;;;;;;;3.53;1.50;;;;;;;;;;4935631;28;20389;-72
2022/01/18 07:01:18;;;;;;;6.75;2.17;;;;;;;;;;4953130;28;20492;-72
2022/01/18 07:03:44;;;;;;;5.90;2.40;;;;;;;;;;4935707;28;20350;-72
2022/01/18 07:06:09;;;;;;;6.78;2.35;;;;;;;;;;4952608;28;20469;-72
2022/01/18 07:08:34;;;;;;;3.75;1.88;;;;;;;;;;4935582;28;20052;-72
2022/01/18 07:11:00;;;;;;;3.13;1.60;;;;;;;;;;4968190;28;20037;-72
2022/01/18 07:13:25;;;;;;;5.38;2.00;;;;;;;;;;4954542;28;20345;-72
2022/01/18 07:15:51;;;;;;;4.95;2.00;;;;;;;;;;4967686;28;20519;-72
2022/01/18 07:18:16;;;;;;;4.85;1.85;;;;;;;;;;4967793;28;20421;-72
2022/01/18 07:20:41;;;;;;;5.20;1.98;;;;;;;;;;4935164;28;20334;-72
2022/01/18 07:23:11;;;;;;;4.28;1.90;;;;;;;;;;4968454;28;20444;-72
2022/01/18 07:25:42;;;;;;;5.30;2.03;;;;;;;;;;4952910;28;20506;-72
2022/01/18 07:28:08;;;;;;;7.22;2.25;;;;;;;;;;4952665;28;20029;-72
2022/01/18 07:30:33;;;;;;;6.93;3.17;;;;;;;;;;4953749;28;20487;-72
2022/01/18 07:32:58;;;;;;;3.33;1.77;;;;;;;;;;4968296;28;20409;-73
2022/01/18 07:35:27;;;;;;;5.00;2.13;;;;;;;;;;4967324;28;20428;-72
2022/01/18 07:37:52;;;;;;;6.43;3.30;;;;;;;;;;4952232;28;20033;-72
2022/01/18 07:40:18;;;;;;;9.02;3.15;;;;;;;;;;4952434;28;20448;-72
2022/01/18 07:42:43;;;;;;;8.13;4.05;;;;;;;;;;4967234;28;20425;-72
2022/01/18 07:45:09;;;;;;;6.07;3.33;;;;;;;;;;4952330;28;20421;-72
2022/01/18 07:47:34;;;;;;;8.98;3.65;;;;;;;;;;4934552;28;20472;-72
2022/01/18 07:49:59;;;;;;;11.27;3.20;;;;;;;;;;4952810;28;20425;-72
2022/01/18 07:52:24;;;;;;;8.30;2.78;;;;;;;;;;4952374;28;20399;-73
2022/01/18 07:54:50;;;;;;;9.35;3.17;;;;;;;;;;4952341;28;20420;-72
2022/01/18 07:57:15;;;;;;;6.10;3.10;;;;;;;;;;4953418;28;20317;-72
2022/01/18 07:59:41;;;;;;;4.57;2.80;;;;;;;;;;4953132;28;20406;-72
2022/01/18 08:02:06;;;;;;;5.80;2.65;;;;;;;;;;4967012;28;20456;-72
2022/01/18 08:04:31;;;;;;;7.80;2.80;;;;;;;;;;4951751;28;20436;-72
2022/01/18 08:06:57;;;;;;;5.60;1.98;;;;;;;;;;4951867;28;20133;-73
2022/01/18 08:09:22;;;;;;;5.57;2.30;;;;;;;;;;4950956;28;20376;-73
2022/01/18 08:11:48;;;;;;;4.80;2.50;;;;;;;;;;4951781;28;20348;-72
2022/01/18 08:14:15;;;;;;;4.32;2.30;;;;;;;;;;4967228;28;20433;-74
2022/01/18 08:16:59;;;;;;;5.68;2.33;;;;;;;;;;4951418;28;20449;-72
2022/01/18 08:19:25;;;;;;;5.82;2.42;;;;;;;;;;4964882;28;20452;-72
2022/01/18 08:21:50;;;;;;;4.63;2.08;;;;;;;;;;4950492;28;20409;-72
2022/01/18 08:24:15;;;;;;;3.33;2.10;;;;;;;;;;4951391;28;20476;-72
2022/01/18 08:26:41;;;;;;;3.50;2.03;;;;;;;;;;4966841;28;20485;-72
2022/01/18 08:29:08;;;;;;;5.10;2.38;;;;;;;;;;4952241;28;20314;-72
2022/01/18 08:31:33;;;;;;;7.93;2.08;;;;;;;;;;4951232;28;20460;-72
2022/01/18 08:33:59;;;;;;;4.45;1.60;;;;;;;;;;4951479;28;20464;-74
2022/01/18 08:36:24;;;;;;;6.93;2.40;;;;;;;;;;4951240;28;20322;-73
2022/01/18 08:38:49;;;;;;;4.70;2.00;;;;;;;;;;4966335;28;20433;-73
2022/01/18 08:41:15;;;;;;;4.75;1.92;;;;;;;;;;4951579;28;20333;-72
2022/01/18 08:43:40;;;;;;;4.90;2.22;;;;;;;;;;4951288;28;20092;-72
2022/01/18 08:46:06;;;;;;;4.32;1.77;;;;;;;;;;4947351;28;20528;-72
2022/01/18 08:48:31;;;;;;;6.55;2.30;;;;;;;;;;4931460;28;20851;-72
2022/01/18 08:50:57;;;;;;;3.50;1.90;;;;;;;;;;4933362;28;20026;-72
2022/01/18 08:53:22;;;;;;;6.93;2.55;;;;;;;;;;4931950;28;20058;-72
2022/01/18 08:55:48;;;;;;;5.50;2.78;;;;;;;;;;4914362;28;20054;-72
2022/01/18 08:58:13;;;;;;;5.55;2.42;;;;;;;;;;4933408;28;20322;-73
2022/01/18 09:00:39;;;;;;;5.13;2.47;;;;;;;;;;4914202;28;20453;-73
2022/01/18 09:03:06;;;;;;;13.32;4.10;;;;;;;;;;4914015;28;20065;-72
2022/01/18 09:05:31;;;;;;;6.82;2.25;;;;;;;;;;4914249;28;20050;-73
2022/01/18 09:07:59;;;;;;;7.28;2.60;;;;;;;;;;4932487;28;20476;-73
2022/01/18 09:10:26;;;;;;;10.50;3.42;;;;;;;;;;4914295;28;20089;-72
2022/01/18 09:12:51;;;;;;;6.85;2.72;;;;;;;;;;4931755;28;20030;-73
2022/01/18 09:15:17;;;;;;;4.20;2.17;;;;;;;;;;4931535;28;20452;-72
2022/01/18 09:17:42;;;;;;;8.02;3.40;;;;;;;;;;4914376;28;20361;-73
2022/01/18 09:20:10;;;;;;;11.50;2.83;;;;;;;;;;4931193;28;20434;-73
2022/01/18 09:22:38;;;;;;;9.23;4.03;;;;;;;;;;4945534;28;20496;-72
2022/01/18 09:25:07;;;;;;;8.02;3.65;;;;;;;;;;4945968;28;20410;-73
2022/01/18 09:27:33;;;;;;;12.80;3.75;;;;;;;;;;4930835;28;20536;-73
2022/01/18 09:29:59;;;;;;;12.55;4.68;;;;;;;;;;4913816;28;20503;-72
2022/01/18 09:32:24;;;;;;;14.68;4.20;;;;;;;;;;4931229;28;20444;-73
2022/01/18 09:34:51;;;;;;;19.83;7.38;;;;;;;;;;4932145;28;20354;-73
2022/01/18 09:37:16;;;;;;;10.77;4.05;;;;;;;;;;4913643;28;20319;-72
2022/01/18 09:39:41;;;;;;;15.52;5.57;;;;;;;;;;4945794;28;20026;-73
2022/01/18 09:42:07;;;;;;;8.95;3.72;;;;;;;;;;4931108;28;20393;-72
2022/01/18 09:44:33;;;;;;;6.70;3.15;;;;;;;;;;4931981;28;20039;-72
2022/01/18 09:46:58;;;;;;;13.20;5.28;;;;;;;;;;4941529;28;20235;-72
2022/01/18 09:49:26;;;;;;;7.90;3.95;;;;;;;;;;4932228;28;20081;-72
2022/01/18 09:51:51;;;;;;;10.15;4.40;;;;;;;;;;4949899;28;20462;-73
2022/01/18 09:54:17;;;;;;;9.15;4.00;;;;;;;;;;4949537;28;20026;-73
2022/01/18 09:56:43;;;;;;;12.90;4.25;;;;;;;;;;4932224;28;20326;-72
2022/01/18 09:59:08;;;;;;;7.97;3.75;;;;;;;;;;4949868;28;20413;-73
2022/01/18 10:01:34;;;;;;;9.55;3.70;;;;;;;;;;4949791;28;20022;-72
2022/01/18 10:04:20;;;;;;;10.20;4.13;;;;;;;;;;4949652;28;20416;-75
2022/01/18 10:06:48;;;;;;;7.60;3.20;;;;;;;;;;4949439;28;20357;-72
2022/01/18 10:09:15;;;;;;;17.80;4.22;;;;;;;;;;4949621;28;20062;-73
2022/01/18 10:12:07;;;;;;;7.50;3.20;;;;;;;;;;4950171;28;20026;-72
2022/01/18 10:14:33;;;;;;;7.60;3.50;;;;;;;;;;4949185;28;20507;-72
2022/01/18 10:16:58;;;;;;;7.00;3.30;;;;;;;;;;4949626;28;20373;-72
2022/01/18 10:19:32;;;;;;;10.60;4.63;;;;;;;;;;4931746;28;20381;-72
2022/01/18 10:22:12;;;;;;;11.85;4.25;;;;;;;;;;4950340;28;20409;-73
2022/01/18 10:24:37;;;;;;;9.50;4.22;;;;;;;;;;4931709;28;20100;-72
2022/01/18 10:27:04;;;;;;;7.43;3.53;;;;;;;;;;4931505;28;20030;-73
2022/01/18 10:29:36;;;;;;;8.88;3.75;;;;;;;;;;4964630;28;20029;-72
2022/01/18 10:32:46;;;;;;;8.30;3.65;;;;;;;;;;4952048;28;20057;-72
2022/01/18 10:37:31;;;;;;;7.75;4.15;;;;;;;;;;4951954;28;20433;-72
2022/01/18 10:40:05;;;;;;;5.93;3.10;;;;;;;;;;4953198;28;20096;-73
2022/01/18 10:42:50;;;;;;;5.55;3.10;;;;;;;;;;4953105;28;20514;-73
2022/01/18 10:45:28;;;;;;;7.38;3.30;;;;;;;;;;4967758;28;20369;-72
2022/01/18 10:47:57;;;;;;;8.85;3.50;;;;;;;;;;4949348;28;20369;-72
2022/01/18 10:50:23;;;;;;;;;;;;;;;;;;4933628;28;20464;-72
2022/01/18 10:52:52;;;;;;;12.07;2.67;;;;;;;;;;4933363;28;20278;-72
2022/01/18 10:55:20;;;;;;;6.13;3.05;;;;;;;;;;4916267;28;20455;-73
2022/01/18 10:57:46;;;;;;;8.13;3.72;;;;;;;;;;4917088;28;20429;-72
2022/01/18 11:00:13;;;;;;;8.27;3.30;;;;;;;;;;4915940;28;20345;-72
2022/01/18 11:02:40;;;;;;;7.10;3.25;;;;;;;;;;4948901;28;20030;-72
2022/01/18 11:05:25;;;;;;;5.75;3.05;;;;;;;;;;4900205;28;20439;-72
2022/01/18 11:07:53;;;;;;;7.97;3.72;;;;;;;;;;4934182;28;20315;-73
2022/01/18 11:10:21;;;;;;;10.27;3.67;;;;;;;;;;4915888;28;20341;-72
2022/01/18 11:12:56;;;;;;;8.40;3.53;;;;;;;;;;4948282;28;20060;-73
2022/01/18 11:15:24;;;;;;;6.53;3.40;;;;;;;;;;4934338;28;20438;-73
2022/01/18 11:17:58;;;;;;;8.40;3.35;;;;;;;;;;4915932;28;20417;-72
2022/01/18 11:20:24;;;;;;;5.22;3.00;;;;;;;;;;4933044;28;20461;-72
2022/01/18 11:22:51;;;;;;;6.00;2.80;;;;;;;;;;4915682;28;20434;-73
2022/01/18 11:25:17;;;;;;;9.02;3.00;;;;;;;;;;4933766;28;20381;-72
2022/01/18 11:27:47;;;;;;;6.18;3.30;;;;;;;;;;4933269;28;20385;-73
2022/01/18 11:30:13;;;;;;;5.28;2.85;;;;;;;;;;4915317;28;20544;-72
2022/01/18 11:32:38;;;;;;;9.30;3.22;;;;;;;;;;4932929;28;20433;-72
2022/01/18 11:35:07;;;;;;;6.97;2.65;;;;;;;;;;4915451;28;20054;-72
2022/01/18 11:37:47;;;;;;;5.55;3.20;;;;;;;;;;4932878;28;20470;-73
2022/01/18 11:40:17;;;;;;;6.50;3.10;;;;;;;;;;4947334;28;20458;-72
2022/01/18 11:42:56;;;;;;;8.00;2.90;;;;;;;;;;4914222;28;20144;-72
2022/01/18 11:45:24;;;;;;;7.68;2.95;;;;;;;;;;4947171;28;20544;-72
2022/01/18 11:48:05;;;;;;;6.27;2.97;;;;;;;;;;4932208;28;20389;-72
2022/01/18 11:50:34;;;;;;;7.28;3.47;;;;;;;;;;4934002;28;20585;-72
2022/01/18 11:53:15;;;;;;;6.10;2.65;;;;;;;;;;4947567;28;20321;-72
2022/01/18 11:55:44;;;;;;;6.78;3.15;;;;;;;;;;4932490;28;20410;-72
2022/01/18 11:58:10;;;;;;;;;;;;;;;;;;4915699;28;20441;-72
2022/01/18 12:00:46;;;;;;;13.38;3.63;;;;;;;;;;4932135;28;20248;-72
2022/01/18 12:03:20;;;;;;;12.82;4.25;;;;;;;;;;4932062;28;20382;-72
2022/01/18 12:05:46;;;;;;;6.65;3.15;;;;;;;;;;4915145;28;20438;-73
2022/01/18 12:08:29;;;;;;;6.78;3.42;;;;;;;;;;4932533;28;20358;-72
2022/01/18 12:10:54;;;;;;;9.40;3.38;;;;;;;;;;4930640;28;20365;-72
2022/01/18 12:13:26;;;;;;;7.85;3.35;;;;;;;;;;4914731;28;20358;-72
2022/01/18 12:15:55;;;;;;;11.40;3.33;;;;;;;;;;4914739;28;20501;-73
2022/01/18 12:18:29;;;;;;;6.22;2.92;;;;;;;;;;4914808;28;20057;-72
2022/01/18 12:21:00;;;;;;;9.00;3.85;;;;;;;;;;4931590;28;20066;-72
2022/01/18 12:23:31;;;;;;;7.70;3.28;;;;;;;;;;4914010;28;20502;-72
2022/01/18 12:26:28;;;;;;;7.43;3.25;;;;;;;;;;4914182;28;20469;-72
2022/01/18 12:29:34;;;;;;;9.52;3.35;;;;;;;;;;4914056;28;20307;-72
2022/01/18 12:32:21;;;;;;;5.47;2.67;;;;;;;;;;4943933;28;20504;-72
2022/01/18 12:34:49;;;;;;;8.63;3.72;;;;;;;;;;4916245;28;20339;-73
2022/01/18 12:37:17;;;;;;;6.32;3.10;;;;;;;;;;4932005;28;20465;-72
2022/01/18 12:45:11;;;;;;;8.85;3.05;;;;;;;;;;4931498;28;20461;-72
2022/01/18 12:48:00;;;;;;;6.22;3.05;;;;;;;;;;4929876;28;20054;-72
2022/01/18 12:50:40;;;;;;;5.53;3.22;;;;;;;;;;4913881;28;20465;-72
2022/01/18 12:53:06;;;;;;;7.15;2.72;;;;;;;;;;4946081;28;20448;-73
2022/01/18 12:55:58;;;;;;;5.93;2.80;;;;;;;;;;4930700;28;20453;-73
2022/01/18 12:58:31;;;;;;;9.25;3.72;;;;;;;;;;4928690;28;20446;-72
2022/01/18 13:00:58;;;;;;;8.60;3.63;;;;;;;;;;4945767;28;20465;-72
2022/01/18 13:03:25;;;;;;;9.25;4.05;;;;;;;;;;4945700;28;20505;-73
2022/01/18 13:06:02;;;;;;;7.03;4.28;;;;;;;;;;4931716;28;20422;-73
2022/01/18 13:08:44;;;;;;;14.52;4.63;;;;;;;;;;4931281;28;20365;-72
2022/01/18 13:11:10;;;;;;;6.35;3.63;;;;;;;;;;4930353;28;20453;-72
2022/01/18 13:13:36;;;;;;;6.97;3.80;;;;;;;;;;4897729;28;20027;-72
2022/01/18 13:22:52;;;;;;;7.63;4.38;;;;;;;;;;4945936;28;20096;-73
2022/01/18 13:26:53;;;;;;;11.77;4.65;;;;;;;;;;4913600;28;20416;-72
2022/01/18 13:29:23;;;;;;;13.73;4.93;;;;;;;;;;4931267;28;20512;-72
2022/01/18 13:32:04;;;;;;;9.85;4.45;;;;;;;;;;4945123;28;20397;-72
2022/01/18 13:34:34;;;;;;;10.90;4.25;;;;;;;;;;4931479;28;20053;-72
2022/01/18 13:37:02;;;;;;;9.93;4.20;;;;;;;;;;4913288;28;20422;-72
2022/01/18 13:39:36;;;;;;;8.93;4.50;;;;;;;;;;4930332;28;20120;-72
2022/01/18 13:42:02;;;;;;;12.35;5.22;;;;;;;;;;4913358;28;20388;-73
2022/01/18 13:44:28;;;;;;;10.65;5.05;;;;;;;;;;4945377;28;20053;-73
2022/01/18 13:46:53;;;;;;;10.15;4.93;;;;;;;;;;4930830;28;20409;-72
2022/01/18 13:49:23;;;;;;;7.88;4.05;;;;;;;;;;4912794;28;20378;-72
2022/01/18 13:52:09;;;;;;;11.23;5.28;;;;;;;;;;4930230;28;20377;-73
2022/01/18 13:54:49;;;;;;;11.93;5.63;;;;;;;;;;4877239;28;20145;-73
2022/01/18 13:57:15;;;;;;;16.25;6.40;;;;;;;;;;4940252;28;20434;-76
2022/01/18 13:59:41;;;;;;;12.98;5.85;;;;;;;;;;4930814;28;20077;-72
2022/01/18 14:02:15;;;;;;;17.27;7.20;;;;;;;;;;4930127;28;20109;-73
2022/01/18 14:04:41;;;;;;;14.27;6.75;;;;;;;;;;4945351;28;20326;-74
2022/01/18 14:07:06;;;;;;;20.10;7.25;;;;;;;;;;4912250;28;20421;-73
2022/01/18 14:09:31;;;;;;;13.65;6.43;;;;;;;;;;4930131;28;20450;-72
2022/01/18 14:11:57;;;;;;;16.58;6.72;;;;;;;;;;4930494;28;20388;-72
2022/01/18 14:14:34;;;;;;;22.75;8.30;;;;;;;;;;4929894;28;20114;-72
2022/01/18 14:17:05;;;;;;;15.32;6.90;;;;;;;;;;4913065;28;20402;-72
2022/01/18 14:19:31;;;;;;;19.25;7.72;;;;;;;;;;4930383;28;20361;-72
2022/01/18 14:22:24;;;;;;;20.13;7.55;;;;;;;;;;4911973;28;20385;-72
2022/01/18 14:24:51;;;;;;;18.65;7.15;;;;;;;;;;4923298;28;20465;-73
2022/01/18 14:27:35;;;;;;;25.63;7.50;;;;;;;;;;4912077;28;20085;-74
2022/01/18 14:30:06;;;;;;;15.32;6.57;;;;;;;;;;4912472;28;20393;-73
2022/01/18 14:32:42;;;;;;;17.45;7.40;;;;;;;;;;4930161;28;20449;-72
2022/01/18 14:35:16;;;;;;;17.27;6.75;;;;;;;;;;4930139;28;20397;-72
2022/01/18 14:37:53;;;;;;;15.77;5.80;;;;;;;;;;4912527;28;20034;-73
2022/01/18 14:40:26;;;;;;;13.80;6.25;;;;;;;;;;4912418;28;20330;-72
2022/01/18 14:42:58;;;;;;;16.15;6.35;;;;;;;;;;4929768;28;20357;-73
2022/01/18 14:45:42;;;;;;;15.52;7.03;;;;;;;;;;4929824;28;20058;-73
2022/01/18 14:48:14;;;;;;;16.80;7.07;;;;;;;;;;4949085;28;20469;-73
2022/01/18 14:50:43;;;;;;;18.25;7.35;;;;;;;;;;4931584;28;20030;-73
2022/01/18 14:53:08;;;;;;;16.90;6.47;;;;;;;;;;4916905;28;20464;-72
2022/01/18 14:55:34;;;;;;;17.30;7.22;;;;;;;;;;4948962;28;20461;-73
2022/01/18 14:58:00;;;;;;;16.08;6.32;;;;;;;;;;4949605;28;20076;-73
2022/01/18 15:00:27;;;;;;;16.02;6.20;;;;;;;;;;4931290;28;20465;-72
2022/01/18 15:02:53;;;;;;;14.05;6.15;;;;;;;;;;4915431;28;20437;-73
2022/01/18 15:05:19;;;;;;;16.17;6.13;;;;;;;;;;4948862;28;20061;-73
2022/01/18 15:07:45;;;;;;;15.63;6.20;;;;;;;;;;4932219;28;20453;-73
2022/01/18 15:10:12;;;;;;;16.63;7.10;;;;;;;;;;4931261;28;20353;-73
2022/01/18 15:12:39;;;;;;;15.07;6.88;;;;;;;;;;4931171;28;20387;-73
2022/01/18 15:15:05;;;;;;;14.88;6.32;;;;;;;;;;4948805;28;20465;-74
2022/01/18 15:17:31;;;;;;;17.15;6.78;;;;;;;;;;4949914;28;20137;-72
2022/01/18 15:19:56;;;;;;;16.23;5.78;;;;;;;;;;4952265;28;20496;-72
2022/01/18 15:22:21;;;;;;;14.50;6.10;;;;;;;;;;4967045;28;20508;-73
2022/01/18 15:24:48;;;;;;;15.27;6.45;;;;;;;;;;4953709;28;20057;-73
2022/01/18 15:27:13;;;;;;;13.05;6.72;;;;;;;;;;4952689;28;20053;-73
2022/01/18 15:29:38;;;;;;;14.50;6.43;;;;;;;;;;4934496;28;20437;-73
2022/01/18 15:32:05;;;;;;;13.07;5.65;;;;;;;;;;4952626;28;20460;-73
2022/01/18 15:34:31;;;;;;;16.15;6.28;;;;;;;;;;4952666;28;20380;-73
2022/01/18 15:36:56;;;;;;;14.02;5.78;;;;;;;;;;4952491;28;20033;-73
2022/01/18 15:39:21;;;;;;;14.52;5.72;;;;;;;;;;4952351;28;20411;-72
2022/01/18 15:41:48;;;;;;;20.25;7.47;;;;;;;;;;4952489;28;20405;-72
2022/01/18 15:44:14;;;;;;;17.58;7.10;;;;;;;;;;4967411;28;20034;-73
2022/01/18 15:46:39;;;;;;;18.30;7.30;;;;;;;;;;4927062;28;20473;-73
2022/01/18 15:49:06;;;;;;;15.40;6.03;;;;;;;;;;4932253;28;20393;-73
2022/01/18 15:51:32;;;;;;;22.55;7.40;;;;;;;;;;4947381;28;20413;-73
2022/01/18 15:53:57;;;;;;;14.00;5.70;;;;;;;;;;4947294;28;20400;-73
2022/01/18 15:56:23;;;;;;;15.27;6.07;;;;;;;;;;4932554;28;20057;-72